Data for 11/15/2010

Time Sea-Level Adjusted Pressure Absolute Pressure Temperature Relative Humidity Dew Point   
(mb) (inHg) (mb) (inHg) (C) (F) (%) (C) (F)
00:05 1012 29.88 841 24.83 0.2 32.3 97 -0.2 31.6
00:10 1012 29.88 841 24.83 0.2 32.4 97 -0.2 31.7
00:15 1012 29.88 841 24.83 0.2 32.4 97 -0.2 31.7
00:20 1012 29.88 841 24.83 0.2 32.4 97 -0.1 31.7
00:25 1012 29.88 841 24.83 0.3 32.5 97 -0.1 31.8
00:30 1012 29.88 841 24.83 0.2 32.4 97 -0.1 31.8
00:35 1012 29.88 841 24.83 0.3 32.5 98 -0.1 31.8
00:40 1012 29.88 841 24.83 0.2 32.4 97 -0.1 31.8
00:45 1012 29.88 841 24.83 0.3 32.5 97 -0.1 31.8
00:50 1012 29.88 841 24.83 0.3 32.5 98 -0.1 31.8
00:55 1012 29.88 841 24.83 0.2 32.4 98 -0.1 31.7
01:00 1012 29.88 841 24.83 0.2 32.4 98 -0.2 31.7
01:05 1012 29.88 841 24.83 0.2 32.3 98 -0.2 31.7
01:10 1012 29.88 841 24.83 0.2 32.4 98 -0.1 31.8
01:15 1012 29.88 841 24.83 0.2 32.4 98 -0.1 31.8
01:20 1012 29.88 841 24.83 0.2 32.4 98 -0.1 31.8
01:25 1012 29.88 841 24.83 0.2 32.4 98 -0.1 31.9
01:30 1012 29.88 841 24.83 0.2 32.3 98 -0.2 31.7
01:35 1012 29.88 841 24.83 0.1 32.2 98 -0.2 31.6
01:40 1012 29.88 841 24.83 0.1 32.2 98 -0.2 31.7
01:45 1012 29.88 841 24.83 0.2 32.4 98 -0.1 31.9
01:50 1012 29.88 841 24.83 0.3 32.5 98 -0 32
01:55 1012 29.88 842 24.86 0.3 32.6 98 0 32.1
02:00 1012 29.88 842 24.86 0.4 32.7 98 0.1 32.2
02:05 1012 29.88 842 24.86 0.4 32.8 98 0.1 32.3
02:10 1012 29.88 842 24.86 0.6 33 98 0.3 32.5
02:15 1012 29.88 842 24.86 0.6 33 98 0.3 32.5
02:20 1013 29.91 842 24.86 0.6 33.2 98 0.3 32.6
02:25 1013 29.91 842 24.86 0.7 33.2 98 0.4 32.6
02:30 1013 29.91 842 24.86 0.7 33.3 98 0.4 32.7
02:35 1013 29.91 842 24.86 0.8 33.4 98 0.5 32.8
02:40 1013 29.91 842 24.86 0.8 33.4 97 0.4 32.8
02:45 1013 29.91 842 24.86 0.7 33.3 97 0.3 32.6
02:50 1013 29.91 842 24.86 0.6 33.2 97 0.2 32.3
02:55 1013 29.91 842 24.86 0.5 33 97 0.1 32.1
03:00 1013 29.91 842 24.86 0.5 32.9 97 0.1 32.1
03:05 1013 29.91 842 24.86 0.6 33 97 0.1 32.2
03:10 1013 29.91 842 24.86 0.4 32.7 97 -0 31.9
03:15 1013 29.91 842 24.86 0.4 32.7 97 -0 32
03:20 1013 29.91 843 24.89 0.4 32.8 97 -0 31.9
03:25 1013 29.91 843 24.89 0.4 32.8 97 -0 32
03:30 1013 29.91 843 24.89 0.4 32.8 97 -0 31.9
03:35 1013 29.91 843 24.89 0.4 32.8 97 -0 32
03:40 1013 29.91 843 24.89 0.6 33 97 0.1 32.1
03:45 1013 29.91 843 24.89 0.7 33.2 96 0.1 32.2
03:50 1013 29.91 843 24.89 0.8 33.4 95 0.1 32.2
03:55 1014 29.94 843 24.89 0.8 33.5 95 0.1 32.2
04:00 1014 29.94 843 24.89 0.8 33.5 95 0.1 32.1
04:05 1014 29.94 843 24.89 0.9 33.6 94 0.1 32.2
04:10 1014 29.94 843 24.89 1 33.7 94 0.1 32.2
04:15 1014 29.94 843 24.89 1.1 34 93 0.1 32.1
04:20 1014 29.94 843 24.89 1.2 34.1 93 0.1 32.2
04:25 1014 29.94 843 24.89 1.1 34 93 0.1 32.2
04:30 1014 29.94 843 24.89 1.1 34 93 0.1 32.1
04:35 1014 29.94 843 24.89 1.1 34 93 0.1 32.1
04:40 1014 29.94 843 24.89 1.2 34.1 92 0.1 32.2
04:45 1014 29.94 843 24.89 1.2 34.1 92 0.1 32.1
04:50 1014 29.94 843 24.89 1.2 34.1 92 0.1 32.1
04:55 1014 29.94 843 24.89 1.2 34.2 92 0.1 32.1
05:00 1014 29.94 843 24.89 1.3 34.3 92 0.1 32.1
05:05 1014 29.94 843 24.89 1.3 34.3 92 0 32.1
05:10 1014 29.94 843 24.89 1.3 34.4 91 0 32.1
05:15 1014 29.94 844 24.92 1.5 34.7 90 0.1 32.1
05:20 1014 29.94 843 24.89 1.6 34.8 90 0.1 32.1
05:25 1014 29.94 844 24.92 1.6 34.9 89 -0 31.9
05:30 1014 29.94 844 24.92 1.7 35.1 89 0 32.1
05:35 1015 29.97 844 24.92 1.8 35.2 88 0.1 32.1
05:40 1014 29.94 844 24.92 1.8 35.2 88 0 32
05:45 1014 29.94 844 24.92 1.9 35.4 86 -0.1 31.8
05:50 1015 29.97 844 24.92 2 35.5 86 -0.1 31.8
05:55 1015 29.97 844 24.92 2 35.6 85 -0.2 31.7
06:00 1015 29.97 844 24.92 2 35.7 86 -0.1 31.8
06:05 1015 29.97 844 24.92 2 35.5 86 -0.2 31.7
06:10 1015 29.97 844 24.92 2 35.5 86 -0.2 31.7
06:15 1015 29.97 844 24.92 2 35.6 85 -0.2 31.7
06:20 1015 29.97 844 24.92 1.9 35.5 86 -0.2 31.6
06:25 1015 29.97 844 24.92 1.9 35.5 85 -0.3 31.5
06:30 1015 29.97 844 24.92 1.9 35.5 85 -0.2 31.6
06:35 1015 29.97 844 24.92 1.9 35.5 86 -0.2 31.6
06:40 1015 29.97 844 24.92 1.9 35.4 86 -0.3 31.5
06:45 1015 29.97 844 24.92 1.8 35.3 87 -0.2 31.7
06:50 1015 29.97 844 24.92 1.8 35.2 87 -0.1 31.8
06:55 1015 29.97 844 24.92 1.8 35.2 87 -0.1 31.8
07:00 1015 29.97 844 24.92 1.7 35.1 89 0 32
07:05 1015 29.97 844 24.92 1.5 34.7 90 -0 32
07:10 1015 29.97 844 24.92 1.3 34.4 91 -0 31.9
07:15 1015 29.97 845 24.95 1.3 34.4 91 0.1 32.1
07:20 1015 29.97 845 24.95 1.4 34.5 91 0.1 32.1
07:25 1015 29.97 845 24.95 1.6 34.8 88 -0.2 31.6
07:30 1015 29.97 845 24.95 1.8 35.2 86 -0.3 31.4
07:35 1016 30 845 24.95 1.9 35.4 85 -0.3 31.5
07:40 1016 30 845 24.95 2 35.6 85 -0.3 31.5
07:45 1016 30 845 24.95 2 35.6 86 -0.2 31.7
07:50 1016 30 845 24.95 1.9 35.4 86 -0.2 31.7
07:55 1016 30 845 24.95 1.9 35.4 87 -0.1 31.8
08:00 1016 30 845 24.95 1.9 35.5 86 -0.1 31.7
08:05 1016 30 845 24.95 2 35.6 85 -0.2 31.6
08:10 1016 30 845 24.95 1.9 35.4 86 -0.1 31.8
08:15 1016 30 845 24.95 1.8 35.3 86 -0.3 31.5
08:20 1016 30 845 24.95 1.8 35.2 86 -0.3 31.4
08:25 1016 30 845 24.95 1.9 35.5 85 -0.2 31.6
08:30 1016 30 845 24.95 2 35.7 84 -0.3 31.4
08:35 1016 30 845 24.95 2.1 35.7 85 -0.3 31.5
08:40 1016 30 845 24.95 2.1 35.8 84 -0.3 31.5
08:45 1016 30 845 24.95 2.3 36.2 83 -0.2 31.6
08:50 1016 30 845 24.95 2.4 36.3 84 -0.1 31.8
08:55 1016 30 845 24.95 2.2 36 85 -0.1 31.8
09:00 1016 30 845 24.95 2.2 36 85 -0.1 31.8
09:05 1016 30 845 24.95 2.2 36 84 -0.3 31.5
09:10 1016 30 845 24.95 2.4 36.3 83 -0.2 31.6
09:15 1016 30 845 24.95 2.6 36.7 82 -0.2 31.7
09:20 1016 30 845 24.95 2.7 36.9 81 -0.3 31.5
09:25 1016 30 845 24.95 2.8 37.1 80 -0.2 31.6
09:30 1016 30 845 24.95 2.8 37.1 81 -0.2 31.7
09:35 1016 30 845 24.95 2.8 37 80 -0.3 31.5
09:40 1016 30 846 24.98 2.8 37 81 -0.2 31.6
09:45 1016 30 846 24.98 2.8 37 80 -0.3 31.5
09:50 1016 30 846 24.98 2.9 37.2 80 -0.2 31.6
09:55 1016 30 846 24.98 2.9 37.2 80 -0.3 31.4
10:00 1016 30 846 24.98 3 37.4 78 -0.4 31.3
10:05 1016 30 846 24.98 2.9 37.2 79 -0.5 31.2
10:10 1016 30 846 24.98 2.9 37.2 78 -0.6 31
10:15 1016 30 846 24.98 2.9 37.1 78 -0.6 30.8
10:20 1016 30 846 24.98 3 37.4 76 -0.8 30.6
10:25 1016 30 846 24.98 3 37.4 75 -0.9 30.3
10:30 1017 30.03 846 24.98 3.2 37.8 74 -0.9 30.4
10:35 1017 30.03 846 24.98 3.2 37.8 73 -1.1 30
10:40 1017 30.03 846 24.98 3.2 37.8 74 -1 30.2
10:45 1017 30.03 846 24.98 3.2 37.8 73 -1.1 30
10:50 1017 30.03 846 24.98 3.4 38.1 71 -1.3 29.7
10:55 1017 30.03 846 24.98 3.4 38.2 72 -1.1 30
11:00 1017 30.03 846 24.98 3.1 37.6 76 -0.7 30.7
11:05 1017 30.03 846 24.98 2.8 37 76 -1.1 30
11:10 1017 30.03 846 24.98 2.8 37 75 -1.2 29.8
11:15 1017 30.03 846 24.98 2.9 37.2 75 -1 30.1
11:20 1016 30 846 24.98 2.9 37.2 75 -1.1 30.1
11:25 1016 30 846 24.98 2.7 36.8 77 -0.9 30.3
11:30 1016 30 846 24.98 2.6 36.6 77 -1 30.2
11:35 1016 30 846 24.98 2.6 36.7 76 -1.2 29.9
11:40 1016 30 845 24.95 2.8 37.1 73 -1.5 29.3
11:45 1016 30 845 24.95 3 37.4 72 -1.6 29.1
11:50 1016 30 845 24.95 3.1 37.6 72 -1.5 29.3
11:55 1016 30 845 24.95 3.1 37.7 72 -1.5 29.4
12:00 1016 30 845 24.95 3.2 37.7 72 -1.4 29.5
12:05 1016 30 845 24.95 3.3 38 69 -1.7 28.9
12:10 1016 30 845 24.95 3.4 38.1 71 -1.3 29.6
12:15 1016 30 845 24.95 3.2 37.7 71 -1.6 29.2
12:20 1016 30 845 24.95 3.3 37.9 72 -1.4 29.5
12:25 1016 30 845 24.95 3.4 38.1 72 -1.3 29.7
12:30 1016 30 845 24.95 3.5 38.2 69 -1.7 28.9
12:35 1016 30 845 24.95 3.6 38.5 70 -1.3 29.7
12:40 1016 30 845 24.95 3.5 38.3 72 -1.2 29.9
12:45 1016 30 845 24.95 3.4 38.2 72 -1.2 29.9
12:50 1016 30 845 24.95 3.3 38 72 -1.3 29.7
12:55 1016 30 845 24.95 3.4 38 72 -1.2 29.9
13:00 1016 30 845 24.95 3.4 38.1 72 -1.1 30
13:05 1016 30 845 24.95 3.4 38.1 73 -1 30.1
13:10 1016 30 845 24.95 3.6 38.4 71 -1.2 29.8
13:15 1016 30 845 24.95 3.8 38.8 70 -1.2 29.9
13:20 1016 30 845 24.95 4 39.3 68 -1.2 29.8
13:25 1016 30 845 24.95 4.1 39.4 67 -1.4 29.6
13:30 1016 30 845 24.95 4.1 39.3 69 -1.1 29.9
13:35 1016 30 845 24.95 4.1 39.4 68 -1.3 29.6
13:40 1016 30 845 24.95 4.2 39.5 67 -1.4 29.5
13:45 1016 30 845 24.95 4.4 39.8 66 -1.5 29.2
13:50 1016 30 845 24.95 4.4 40 66 -1.5 29.4
13:55 1016 30 845 24.95 4.4 40 66 -1.3 29.6
14:00 1016 30 845 24.95 4.3 39.7 69 -0.9 30.5
14:05 1016 30 845 24.95 4.2 39.5 69 -1 30.3
14:10 1016 30 845 24.95 4.3 39.7 68 -1.1 30
14:15 1016 30 845 24.95 4.3 39.8 66 -1.5 29.3
14:20 1016 30 845 24.95 4.3 39.8 65 -1.7 29
14:25 1016 30 845 24.95 4.5 40 64 -1.6 29
14:30 1016 30 845 24.95 4.5 40.2 64 -1.6 29.1
14:35 1016 30 845 24.95 4.5 40.2 64 -1.6 29.1
14:40 1016 30 845 24.95 4.6 40.3 66 -1.1 30
14:45 1016 30 845 24.95 4.4 39.9 70 -0.6 30.9
14:50 1016 30 845 24.95 4.1 39.3 72 -0.6 30.9
14:55 1016 30 845 24.95 4.1 39.3 71 -0.6 30.8
15:00 1016 30 845 24.95 3.7 38.7 74 -0.5 31.1
15:05 1016 30 845 24.95 3.2 37.8 74 -0.9 30.3
15:10 1015 29.97 845 24.95 3.6 38.5 70 -1.4 29.4
15:15 1015 29.97 845 24.95 3.8 38.9 68 -1.5 29.3
15:20 1015 29.97 845 24.95 4 39.3 68 -1.3 29.6
15:25 1015 29.97 845 24.95 4.1 39.4 69 -1 30.2
15:30 1015 29.97 845 24.95 3.9 39.1 70 -1.1 30.1
15:35 1015 29.97 845 24.95 3.7 38.7 69 -1.4 29.5
15:40 1015 29.97 845 24.95 3.8 38.8 71 -1 30.3
15:45 1015 29.97 845 24.95 3.5 38.4 71 -1.2 29.8
15:50 1015 29.97 845 24.95 3.5 38.3 69 -1.6 29.2
15:55 1015 29.97 845 24.95 3.7 38.7 67 -1.8 28.7
16:00 1015 29.97 845 24.95 3.8 38.9 67 -1.8 28.8
16:05 1015 29.97 845 24.95 3.9 38.9 68 -1.6 29.2
16:10 1015 29.97 844 24.92 3.8 38.8 67 -1.8 28.8
16:15 1015 29.97 844 24.92 3.9 39.1 66 -1.8 28.7
16:20 1015 29.97 844 24.92 4 39.1 66 -1.8 28.8
16:25 1015 29.97 844 24.92 3.8 38.9 66 -1.8 28.7
16:30 1015 29.97 844 24.92 3.7 38.7 67 -1.8 28.8
16:35 1015 29.97 844 24.92 3.8 38.8 66 -2 28.5
16:40 1015 29.97 844 24.92 3.7 38.7 67 -1.8 28.8
16:45 1015 29.97 844 24.92 3.5 38.4 68 -1.7 28.9
16:50 1015 29.97 844 24.92 3.4 38.2 67 -2.1 28.2
16:55 1015 29.97 844 24.92 3.6 38.4 67 -2 28.3
17:00 1015 29.97 844 24.92 3.7 38.6 66 -2.1 28.3
17:05 1015 29.97 844 24.92 3.7 38.7 66 -2.1 28.3
17:10 1015 29.97 844 24.92 3.8 38.8 66 -2 28.4
17:15 1015 29.97 844 24.92 3.8 38.9 64 -2.4 27.7
17:20 1015 29.97 844 24.92 3.9 39 65 -2.1 28.2
17:25 1014 29.94 844 24.92 3.7 38.7 66 -2.1 28.2
17:30 1014 29.94 844 24.92 3.4 38.2 66 -2.2 28
17:35 1014 29.94 844 24.92 3.5 38.2 69 -1.8 28.8
17:40 1014 29.94 844 24.92 3 37.5 71 -1.7 28.9
17:45 1014 29.94 843 24.89 2.9 37.2 72 -1.7 28.9
17:50 1014 29.94 843 24.89 2.9 37.3 69 -2.1 28.2
17:55 1014 29.94 843 24.89 3.2 37.8 69 -1.9 28.5
18:00 1014 29.94 843 24.89 3.4 38.2 68 -1.9 28.6
18:05 1014 29.94 843 24.89 3.4 38.2 69 -1.7 29
18:10 1014 29.94 843 24.89 3.3 37.9 70 -1.6 29.1
18:15 1014 29.94 843 24.89 3.2 37.8 71 -1.5 29.3
18:20 1014 29.94 843 24.89 3.3 37.9 71 -1.5 29.3
18:25 1014 29.94 843 24.89 3.1 37.7 74 -1.1 30.1
18:30 1014 29.94 843 24.89 2.7 36.9 74 -1.4 29.5
18:35 1014 29.94 843 24.89 2.8 37 71 -2 28.5
18:40 1014 29.94 843 24.89 3.2 37.8 67 -2.3 27.9
18:45 1014 29.94 843 24.89 3.5 38.3 67 -2 28.3
18:50 1013 29.91 843 24.89 3.6 38.4 68 -1.7 28.9
18:55 1013 29.91 843 24.89 3.3 38 70 -1.6 29.1
19:00 1013 29.91 843 24.89 3.2 37.8 68 -2.1 28.2
19:05 1013 29.91 842 24.86 3.4 38.1 67 -2.1 28.3
19:10 1013 29.91 842 24.86 3.5 38.3 68 -1.9 28.6
19:15 1013 29.91 842 24.86 3.6 38.5 66 -2.1 28.1
19:20 1013 29.91 842 24.86 3.7 38.7 67 -1.8 28.8
19:25 1013 29.91 842 24.86 3.6 38.5 66 -2.1 28.2
19:30 1013 29.91 842 24.86 3.6 38.6 67 -1.8 28.7
19:35 1013 29.91 842 24.86 3.5 38.3 69 -1.6 29.1
19:40 1013 29.91 842 24.86 3.3 37.9 71 -1.4 29.5
19:45 1013 29.91 842 24.86 3.1 37.6 73 -1.3 29.7
19:50 1013 29.91 842 24.86 3 37.4 74 -1.1 30
19:55 1013 29.91 842 24.86 2.8 37.1 76 -1 30.2
20:00 1013 29.91 842 24.86 2.8 37 76 -1 30.2
20:05 1012 29.88 842 24.86 2.7 36.9 76 -1.1 30
20:10 1012 29.88 841 24.83 2.8 37 76 -1.1 30.1
20:15 1012 29.88 841 24.83 2.8 37 75 -1.1 30
20:20 1012 29.88 842 24.86 2.8 37.1 75 -1.1 30
20:25 1012 29.88 842 24.86 3 37.4 74 -1.2 29.8
20:30 1012 29.88 841 24.83 3.2 37.7 73 -1.1 30
20:35 1012 29.88 841 24.83 3.2 37.8 75 -0.9 30.4
20:40 1012 29.88 841 24.83 3.2 37.8 74 -1.1 30.1
20:45 1012 29.88 841 24.83 3.2 37.8 72 -1.3 29.7
20:50 1012 29.88 841 24.83 3.3 37.9 72 -1.2 29.8
20:55 1012 29.88 841 24.83 3.3 37.9 75 -0.7 30.7
21:00 1012 29.88 841 24.83 3.1 37.6 75 -0.8 30.5
21:05 1012 29.88 841 24.83 2.7 36.8 78 -0.7 30.7
21:10 1012 29.88 841 24.83 3.1 37.5 71 -1.6 29.1
21:15 1011 29.85 841 24.83 3.3 37.9 71 -1.5 29.4
21:20 1011 29.85 841 24.83 3.3 38 72 -1.2 29.8
21:25 1011 29.85 841 24.83 3.4 38.1 72 -1.1 29.9
21:30 1011 29.85 840 24.81 3.1 37.7 74 -1 30.3
21:35 1011 29.85 840 24.81 3.1 37.5 75 -1 30.2
21:40 1011 29.85 840 24.81 3 37.4 76 -0.8 30.6
21:45 1011 29.85 840 24.81 2.8 37.1 78 -0.6 30.9
21:50 1011 29.85 840 24.81 2.7 36.8 80 -0.4 31.3
21:55 1011 29.85 840 24.81 2.1 35.8 85 -0.1 31.8
22:00 1010 29.83 840 24.81 1.6 34.9 89 -0.1 31.8
22:05 1010 29.83 840 24.81 1.2 34.1 91 -0.1 31.8
22:10 1010 29.83 839 24.78 1 33.7 93 -0.1 31.8
22:15 1010 29.83 839 24.78 0.8 33.4 93 -0.2 31.6
22:20 1010 29.83 839 24.78 0.6 33.1 94 -0.2 31.6
22:25 1010 29.83 839 24.78 0.4 32.7 95 -0.3 31.5
22:30 1010 29.83 839 24.78 0.2 32.4 96 -0.4 31.4
22:35 1009 29.8 839 24.78 0.2 32.3 96 -0.4 31.4
22:40 1009 29.8 838 24.75 0.1 32.2 97 -0.3 31.4
22:45 1009 29.8 838 24.75 0.1 32.2 97 -0.3 31.5
22:50 1009 29.8 838 24.75 0.1 32.2 97 -0.3 31.5
22:55 1009 29.8 838 24.75 0.1 32.3 97 -0.2 31.6
23:00 1009 29.8 838 24.75 0.2 32.3 97 -0.2 31.6
23:05 1009 29.8 838 24.75 0.2 32.3 98 -0.2 31.7
23:10 1008 29.77 838 24.75 0.2 32.3 98 -0.1 31.7
23:15 1008 29.77 838 24.75 0.3 32.5 98 -0.1 31.8
23:20 1008 29.77 837 24.72 0.4 32.7 98 0 32.1
23:25 1008 29.77 837 24.72 0.5 32.9 98 0.1 32.2
23:30 1008 29.77 837 24.72 0.6 33.1 97 0.3 32.5
23:35 1008 29.77 837 24.72 0.7 33.3 97 0.3 32.5
23:40 1008 29.77 837 24.72 0.8 33.4 97 0.3 32.5
23:45 1008 29.77 837 24.72 0.9 33.6 96 0.3 32.6
23:50 1007 29.74 837 24.72 0.9 33.6 95 0.2 32.4
23:55 1007 29.74 836 24.69 0.9 33.7 95 0.3 32.5
24:00 1007 29.74 836 24.69 1 33.8 94 0.2 32.4